N179LJ MUHA-MRLB
Flight info
| Callsign | N179LJ |
|---|---|
| Flight time | 1h 56m |
| Altitude | 35000 |
| Route | KAVUL6A SELEK UM328 IMOLA |
| Aircraft | B752/M-SDE2E3FGHIJ3J4J7RWXY/LB1 |
Departure
| Time | 2026-04-15 15:46 |
|---|---|
| Airport | José Martí International Airport (MUHA) |
Arrival
| Time | 2026-04-15 17:42 |
|---|---|
| Airport | Daniel Oduber Quirós International Airport (MRLB) |
| Time | Latitude | Longitude | Altitude | Speed | Heading |
|---|---|---|---|---|---|
| 2026-04-15 15:27 | 22.99600 | -82.40662 | 218 ft | 0 kts | 349° |
| 2026-04-15 15:35 | 22.99599 | -82.40662 | 218 ft | 1 kts | 349° |
| 2026-04-15 15:35 | 22.99585 | -82.40659 | 218 ft | 2 kts | 349° |
| 2026-04-15 15:35 | 22.99571 | -82.40656 | 218 ft | 0 kts | 349° |
| 2026-04-15 15:36 | 22.99557 | -82.40653 | 218 ft | 3 kts | 345° |
| 2026-04-15 15:36 | 22.99536 | -82.40642 | 218 ft | 2 kts | 300° |
| 2026-04-15 15:36 | 22.99534 | -82.40627 | 217 ft | 2 kts | 265° |
| 2026-04-15 15:36 | 22.99537 | -82.40610 | 217 ft | 2 kts | 268° |
| 2026-04-15 15:37 | 22.99540 | -82.40595 | 217 ft | 2 kts | 243° |
| 2026-04-15 15:37 | 22.99544 | -82.40587 | 217 ft | 1 kts | 233° |
| 2026-04-15 15:37 | 22.99546 | -82.40584 | 217 ft | 0 kts | 233° |
| 2026-04-15 15:40 | 22.99539 | -82.40594 | 217 ft | 4 kts | 233° |
| 2026-04-15 15:40 | 22.99511 | -82.40637 | 218 ft | 14 kts | 236° |
| 2026-04-15 15:40 | 22.99440 | -82.40745 | 217 ft | 18 kts | 234° |
| 2026-04-15 15:41 | 22.99354 | -82.40835 | 215 ft | 16 kts | 173° |
| 2026-04-15 15:41 | 22.99264 | -82.40784 | 214 ft | 13 kts | 151° |
| 2026-04-15 15:41 | 22.99178 | -82.40826 | 212 ft | 19 kts | 236° |
| 2026-04-15 15:41 | 22.99085 | -82.40971 | 213 ft | 27 kts | 235° |
| 2026-04-15 15:42 | 22.98954 | -82.41167 | 215 ft | 34 kts | 234° |
| 2026-04-15 15:42 | 22.98819 | -82.41369 | 218 ft | 32 kts | 234° |
| 2026-04-15 15:42 | 22.98691 | -82.41562 | 218 ft | 30 kts | 234° |
| 2026-04-15 15:42 | 22.98572 | -82.41742 | 221 ft | 27 kts | 234° |
| 2026-04-15 15:43 | 22.98461 | -82.41909 | 221 ft | 26 kts | 235° |
| 2026-04-15 15:43 | 22.98358 | -82.42065 | 224 ft | 23 kts | 234° |
| 2026-04-15 15:43 | 22.98262 | -82.42209 | 224 ft | 22 kts | 234° |
| 2026-04-15 15:43 | 22.98172 | -82.42345 | 224 ft | 21 kts | 234° |
| 2026-04-15 15:44 | 22.98086 | -82.42474 | 223 ft | 21 kts | 235° |
| 2026-04-15 15:44 | 22.97979 | -82.42559 | 221 ft | 17 kts | 165° |
| 2026-04-15 15:44 | 22.97924 | -82.42523 | 221 ft | 8 kts | 138° |
| 2026-04-15 15:44 | 22.97899 | -82.42461 | 221 ft | 13 kts | 85° |
| 2026-04-15 15:45 | 22.97967 | -82.42339 | 223 ft | 24 kts | 57° |
| 2026-04-15 15:45 | 22.98150 | -82.42058 | 224 ft | 77 kts | 54° |
| 2026-04-15 15:45 | 22.98609 | -82.41370 | 218 ft | 146 kts | 56° |
| 2026-04-15 15:45 | 22.99302 | -82.40328 | 379 ft | 190 kts | 57° |
| 2026-04-15 15:46 | 23.00205 | -82.39083 | 593 ft | 237 kts | 53° |
| 2026-04-15 15:46 | 23.01285 | -82.37600 | 783 ft | 255 kts | 53° |
| 2026-04-15 15:46 | 23.02349 | -82.36062 | 1198 ft | 249 kts | 57° |
| 2026-04-15 15:46 | 23.03347 | -82.34535 | 1862 ft | 251 kts | 56° |
| 2026-04-15 15:47 | 23.04043 | -82.32856 | 2938 ft | 247 kts | 80° |
| 2026-04-15 15:47 | 23.04221 | -82.30985 | 3834 ft | 252 kts | 84° |
| 2026-04-15 15:47 | 23.04381 | -82.29117 | 4784 ft | 253 kts | 85° |
| 2026-04-15 15:47 | 23.04532 | -82.27209 | 5664 ft | 257 kts | 85° |
| 2026-04-15 15:48 | 23.04675 | -82.25298 | 6594 ft | 258 kts | 86° |
| 2026-04-15 15:48 | 23.04814 | -82.23334 | 7423 ft | 262 kts | 85° |
| 2026-04-15 15:48 | 23.04951 | -82.21370 | 8228 ft | 265 kts | 85° |
| 2026-04-15 15:48 | 23.05087 | -82.19377 | 9017 ft | 269 kts | 85° |
| 2026-04-15 15:49 | 23.05223 | -82.17370 | 9884 ft | 269 kts | 85° |
| 2026-04-15 15:49 | 23.05297 | -82.15280 | 10397 ft | 284 kts | 94° |
| 2026-04-15 15:49 | 23.04787 | -82.13147 | 10694 ft | 309 kts | 112° |
| 2026-04-15 15:49 | 23.03550 | -82.11129 | 10956 ft | 334 kts | 130° |
| 2026-04-15 15:50 | 23.01655 | -82.09489 | 11259 ft | 358 kts | 147° |
| 2026-04-15 15:50 | 22.99301 | -82.08517 | 11963 ft | 367 kts | 164° |
| 2026-04-15 15:50 | 22.96723 | -82.08278 | 12562 ft | 378 kts | 181° |
| 2026-04-15 15:50 | 22.94122 | -82.08819 | 13162 ft | 387 kts | 197° |
| 2026-04-15 15:51 | 22.91709 | -82.10110 | 13806 ft | 393 kts | 212° |
| 2026-04-15 15:51 | 22.89373 | -82.11676 | 14378 ft | 396 kts | 204° |
| 2026-04-15 15:51 | 22.86765 | -82.12703 | 14998 ft | 396 kts | 193° |
| 2026-04-15 15:51 | 22.84067 | -82.13327 | 15587 ft | 399 kts | 188° |
| 2026-04-15 15:52 | 22.81296 | -82.13807 | 16161 ft | 403 kts | 186° |
| 2026-04-15 15:52 | 22.78485 | -82.14213 | 16732 ft | 407 kts | 185° |
| 2026-04-15 15:52 | 22.75663 | -82.14568 | 17325 ft | 409 kts | 185° |
| 2026-04-15 15:52 | 22.72818 | -82.14853 | 17913 ft | 412 kts | 184° |
| 2026-04-15 15:53 | 22.69950 | -82.15132 | 18458 ft | 417 kts | 184° |
| 2026-04-15 15:53 | 22.67009 | -82.15428 | 19024 ft | 421 kts | 184° |
| 2026-04-15 15:53 | 22.64089 | -82.15726 | 19613 ft | 424 kts | 184° |
| 2026-04-15 15:53 | 22.61142 | -82.16029 | 20224 ft | 426 kts | 185° |
| 2026-04-15 15:54 | 22.58170 | -82.16335 | 20704 ft | 431 kts | 185° |
| 2026-04-15 15:54 | 22.55181 | -82.16644 | 21268 ft | 434 kts | 185° |
| 2026-04-15 15:54 | 22.52146 | -82.16958 | 21837 ft | 436 kts | 185° |
| 2026-04-15 15:54 | 22.49113 | -82.17271 | 22342 ft | 440 kts | 185° |
| 2026-04-15 15:55 | 22.46078 | -82.17585 | 22835 ft | 443 kts | 185° |
| 2026-04-15 15:55 | 22.42979 | -82.17906 | 23298 ft | 447 kts | 185° |
| 2026-04-15 15:55 | 22.39867 | -82.18241 | 23730 ft | 451 kts | 185° |
| 2026-04-15 15:55 | 22.36717 | -82.18559 | 24150 ft | 455 kts | 185° |
| 2026-04-15 15:56 | 22.33555 | -82.18883 | 24643 ft | 458 kts | 185° |
| 2026-04-15 15:56 | 22.30383 | -82.19208 | 25058 ft | 461 kts | 185° |
| 2026-04-15 15:56 | 22.27144 | -82.19541 | 25496 ft | 465 kts | 185° |
| 2026-04-15 15:56 | 22.23925 | -82.19872 | 25853 ft | 470 kts | 185° |
| 2026-04-15 15:57 | 22.20670 | -82.20208 | 26333 ft | 471 kts | 185° |
| 2026-04-15 15:57 | 22.17336 | -82.20551 | 26620 ft | 478 kts | 185° |
| 2026-04-15 15:57 | 22.14035 | -82.20890 | 27136 ft | 478 kts | 185° |
| 2026-04-15 15:57 | 22.10698 | -82.21233 | 27437 ft | 483 kts | 185° |
| 2026-04-15 15:58 | 22.07372 | -82.21576 | 27795 ft | 486 kts | 185° |
| 2026-04-15 15:58 | 22.03984 | -82.21930 | 28140 ft | 489 kts | 186° |
| 2026-04-15 15:58 | 22.00565 | -82.22331 | 28473 ft | 493 kts | 186° |
| 2026-04-15 15:58 | 21.97125 | -82.22714 | 28806 ft | 496 kts | 186° |
| 2026-04-15 15:59 | 21.93704 | -82.23082 | 29198 ft | 498 kts | 186° |
| 2026-04-15 15:59 | 21.90246 | -82.23447 | 29490 ft | 502 kts | 186° |
| 2026-04-15 15:59 | 21.86715 | -82.23815 | 29863 ft | 503 kts | 186° |
| 2026-04-15 15:59 | 21.83249 | -82.24211 | 30149 ft | 506 kts | 187° |
| 2026-04-15 16:00 | 21.79716 | -82.24612 | 30448 ft | 509 kts | 186° |
| 2026-04-15 16:00 | 21.76214 | -82.24993 | 30780 ft | 510 kts | 186° |
| 2026-04-15 16:00 | 21.72630 | -82.25373 | 31018 ft | 513 kts | 186° |
| 2026-04-15 16:00 | 21.69080 | -82.25744 | 31446 ft | 512 kts | 187° |
| 2026-04-15 16:01 | 21.65556 | -82.26109 | 31906 ft | 509 kts | 187° |
| 2026-04-15 16:01 | 21.61993 | -82.26476 | 32271 ft | 509 kts | 187° |
| 2026-04-15 16:01 | 21.58476 | -82.26838 | 32707 ft | 507 kts | 187° |
| 2026-04-15 16:01 | 21.54952 | -82.27196 | 32986 ft | 508 kts | 187° |
| 2026-04-15 16:02 | 21.51442 | -82.27511 | 33479 ft | 505 kts | 186° |
| 2026-04-15 16:02 | 21.47967 | -82.27832 | 33834 ft | 505 kts | 187° |
| 2026-04-15 16:02 | 21.44453 | -82.28172 | 34168 ft | 504 kts | 187° |
| 2026-04-15 16:02 | 21.40956 | -82.28516 | 34567 ft | 503 kts | 187° |
| 2026-04-15 16:03 | 21.37483 | -82.28863 | 34932 ft | 501 kts | 187° |
| 2026-04-15 16:03 | 21.33995 | -82.29185 | 35086 ft | 502 kts | 187° |
| 2026-04-15 16:03 | 21.27052 | -82.29824 | 35075 ft | 499 kts | 187° |
| 2026-04-15 16:04 | 21.20092 | -82.30508 | 35073 ft | 499 kts | 187° |
| 2026-04-15 16:04 | 21.13157 | -82.31203 | 35074 ft | 500 kts | 188° |
| 2026-04-15 16:05 | 21.06257 | -82.31901 | 35072 ft | 499 kts | 188° |
| 2026-04-15 16:05 | 20.99327 | -82.32602 | 35073 ft | 498 kts | 188° |
| 2026-04-15 16:06 | 20.92417 | -82.33302 | 35072 ft | 498 kts | 188° |
| 2026-04-15 16:06 | 20.85471 | -82.34004 | 35066 ft | 499 kts | 188° |
| 2026-04-15 16:07 | 20.78550 | -82.34704 | 35063 ft | 498 kts | 188° |
| 2026-04-15 16:08 | 20.68200 | -82.35748 | 35061 ft | 499 kts | 188° |
| 2026-04-15 16:08 | 20.61280 | -82.36508 | 35058 ft | 497 kts | 188° |
| 2026-04-15 16:09 | 20.54368 | -82.37247 | 35060 ft | 497 kts | 188° |
| 2026-04-15 16:09 | 20.47469 | -82.37955 | 35061 ft | 497 kts | 188° |
| 2026-04-15 16:10 | 20.40535 | -82.38657 | 35053 ft | 497 kts | 188° |
| 2026-04-15 16:10 | 20.33618 | -82.39355 | 35058 ft | 498 kts | 188° |
| 2026-04-15 16:11 | 20.26722 | -82.40048 | 35055 ft | 497 kts | 188° |
| 2026-04-15 16:11 | 20.19838 | -82.40738 | 35055 ft | 496 kts | 188° |
| 2026-04-15 16:12 | 20.12952 | -82.41428 | 35059 ft | 496 kts | 188° |
| 2026-04-15 16:12 | 20.06095 | -82.42463 | 35065 ft | 492 kts | 199° |
| 2026-04-15 16:13 | 19.99895 | -82.45318 | 35059 ft | 485 kts | 213° |
| 2026-04-15 16:13 | 19.93889 | -82.48644 | 35052 ft | 486 kts | 210° |
| 2026-04-15 16:14 | 19.87791 | -82.51826 | 35042 ft | 487 kts | 210° |
| 2026-04-15 16:14 | 19.81706 | -82.54931 | 35042 ft | 486 kts | 210° |
| 2026-04-15 16:15 | 19.75567 | -82.58034 | 35038 ft | 486 kts | 209° |
| 2026-04-15 16:15 | 19.69459 | -82.61111 | 35037 ft | 487 kts | 209° |
| 2026-04-15 16:16 | 19.63310 | -82.64201 | 35040 ft | 488 kts | 210° |
| 2026-04-15 16:16 | 19.57204 | -82.67266 | 35041 ft | 487 kts | 209° |
| 2026-04-15 16:17 | 19.51065 | -82.70345 | 35042 ft | 486 kts | 209° |
| 2026-04-15 16:17 | 19.44931 | -82.73425 | 35038 ft | 487 kts | 210° |
| 2026-04-15 16:18 | 19.38825 | -82.76525 | 35039 ft | 487 kts | 210° |
| 2026-04-15 16:18 | 19.32669 | -82.79615 | 35039 ft | 487 kts | 209° |
| 2026-04-15 16:19 | 19.26557 | -82.82685 | 35036 ft | 489 kts | 209° |
| 2026-04-15 16:19 | 19.20396 | -82.85774 | 35036 ft | 487 kts | 210° |
| 2026-04-15 16:20 | 19.14303 | -82.88837 | 35033 ft | 486 kts | 209° |
| 2026-04-15 16:20 | 19.08167 | -82.91904 | 35034 ft | 487 kts | 210° |
| 2026-04-15 16:21 | 19.02025 | -82.94967 | 35032 ft | 487 kts | 209° |
| 2026-04-15 16:21 | 18.95889 | -82.98022 | 35031 ft | 487 kts | 210° |
| 2026-04-15 16:22 | 18.89716 | -83.01092 | 35033 ft | 488 kts | 209° |
| 2026-04-15 16:22 | 18.83619 | -83.04122 | 35024 ft | 486 kts | 209° |
| 2026-04-15 16:23 | 18.77460 | -83.07180 | 35019 ft | 486 kts | 209° |
| 2026-04-15 16:23 | 18.71361 | -83.10205 | 35018 ft | 488 kts | 209° |
| 2026-04-15 16:24 | 18.65166 | -83.13256 | 35020 ft | 489 kts | 209° |
| 2026-04-15 16:24 | 18.58995 | -83.16257 | 35016 ft | 488 kts | 209° |
| 2026-04-15 16:25 | 18.52825 | -83.19279 | 35017 ft | 487 kts | 209° |
| 2026-04-15 16:25 | 18.46667 | -83.22313 | 35014 ft | 489 kts | 209° |
| 2026-04-15 16:26 | 18.40546 | -83.25333 | 35017 ft | 487 kts | 209° |
| 2026-04-15 16:26 | 18.34389 | -83.28371 | 35015 ft | 487 kts | 209° |
| 2026-04-15 16:27 | 18.28229 | -83.31425 | 35012 ft | 488 kts | 211° |
| 2026-04-15 16:27 | 18.22195 | -83.34695 | 35011 ft | 487 kts | 211° |
| 2026-04-15 16:28 | 18.16081 | -83.37824 | 35013 ft | 489 kts | 210° |
| 2026-04-15 16:28 | 18.09959 | -83.40880 | 35010 ft | 489 kts | 209° |
| 2026-04-15 16:29 | 18.03765 | -83.43942 | 35011 ft | 488 kts | 209° |
| 2026-04-15 16:29 | 17.97658 | -83.46950 | 35013 ft | 488 kts | 209° |
| 2026-04-15 16:30 | 17.91476 | -83.49989 | 35010 ft | 489 kts | 209° |
| 2026-04-15 16:30 | 17.85313 | -83.53016 | 35000 ft | 489 kts | 209° |
| 2026-04-15 16:31 | 17.80158 | -83.55545 | 34997 ft | 489 kts | 209° |
| 2026-04-15 16:31 | 17.74011 | -83.58558 | 35000 ft | 489 kts | 209° |
| 2026-04-15 16:32 | 17.67829 | -83.61586 | 34996 ft | 489 kts | 209° |
| 2026-04-15 16:32 | 17.61612 | -83.64629 | 35000 ft | 489 kts | 209° |
| 2026-04-15 16:33 | 17.55422 | -83.67657 | 35006 ft | 491 kts | 209° |
| 2026-04-15 16:33 | 17.49219 | -83.70687 | 35007 ft | 490 kts | 209° |
| 2026-04-15 16:34 | 17.43057 | -83.73697 | 35006 ft | 491 kts | 208° |
| 2026-04-15 16:34 | 17.36813 | -83.76743 | 35007 ft | 491 kts | 208° |
| 2026-04-15 16:35 | 17.30659 | -83.79743 | 35009 ft | 489 kts | 209° |
| 2026-04-15 16:35 | 17.24416 | -83.82786 | 35012 ft | 493 kts | 209° |
| 2026-04-15 16:36 | 17.18235 | -83.85794 | 35008 ft | 490 kts | 209° |
| 2026-04-15 16:36 | 17.12022 | -83.88818 | 35010 ft | 492 kts | 208° |
| 2026-04-15 16:37 | 17.05805 | -83.91840 | 35011 ft | 494 kts | 209° |
| 2026-04-15 16:37 | 16.99556 | -83.94875 | 35009 ft | 490 kts | 208° |
| 2026-04-15 16:38 | 16.93352 | -83.97886 | 35012 ft | 490 kts | 209° |
| 2026-04-15 16:38 | 16.87190 | -84.00861 | 35000 ft | 490 kts | 208° |
| 2026-04-15 16:39 | 16.80930 | -84.03864 | 35001 ft | 493 kts | 208° |
| 2026-04-15 16:39 | 16.74680 | -84.06860 | 35002 ft | 493 kts | 209° |
| 2026-04-15 16:40 | 16.68455 | -84.09842 | 35000 ft | 494 kts | 209° |
| 2026-04-15 16:40 | 16.62213 | -84.12829 | 34997 ft | 491 kts | 208° |
| 2026-04-15 16:41 | 16.55981 | -84.15810 | 34999 ft | 492 kts | 209° |
| 2026-04-15 16:41 | 16.49740 | -84.18794 | 34993 ft | 494 kts | 208° |
| 2026-04-15 16:42 | 16.43494 | -84.21778 | 34996 ft | 493 kts | 209° |
| 2026-04-15 16:42 | 16.37211 | -84.24777 | 34989 ft | 493 kts | 209° |
| 2026-04-15 16:43 | 16.30994 | -84.27742 | 34990 ft | 494 kts | 209° |
| 2026-04-15 16:43 | 16.24730 | -84.30727 | 34991 ft | 493 kts | 209° |
| 2026-04-15 16:44 | 16.18458 | -84.33716 | 34986 ft | 496 kts | 209° |
| 2026-04-15 16:44 | 16.12201 | -84.36693 | 34987 ft | 493 kts | 209° |
| 2026-04-15 16:45 | 16.05984 | -84.39649 | 34993 ft | 494 kts | 209° |
| 2026-04-15 16:45 | 15.99691 | -84.42641 | 34993 ft | 494 kts | 209° |
| 2026-04-15 16:46 | 15.93423 | -84.45617 | 34985 ft | 493 kts | 209° |
| 2026-04-15 16:46 | 15.87173 | -84.48585 | 34977 ft | 493 kts | 209° |
| 2026-04-15 16:47 | 15.80907 | -84.51557 | 34983 ft | 494 kts | 209° |
| 2026-04-15 16:47 | 15.74672 | -84.54511 | 34982 ft | 494 kts | 209° |
| 2026-04-15 16:48 | 15.68378 | -84.57494 | 34981 ft | 496 kts | 209° |
| 2026-04-15 16:48 | 15.62115 | -84.60458 | 34983 ft | 495 kts | 209° |
| 2026-04-15 16:49 | 15.55878 | -84.63402 | 34992 ft | 493 kts | 209° |
| 2026-04-15 16:49 | 15.49585 | -84.66338 | 34997 ft | 494 kts | 209° |
| 2026-04-15 16:50 | 15.43318 | -84.69287 | 35000 ft | 495 kts | 209° |
| 2026-04-15 16:50 | 15.37056 | -84.72239 | 35001 ft | 493 kts | 209° |
| 2026-04-15 16:51 | 15.30767 | -84.75206 | 35001 ft | 494 kts | 209° |
| 2026-04-15 16:51 | 15.24498 | -84.78161 | 35003 ft | 493 kts | 209° |
| 2026-04-15 16:52 | 15.18269 | -84.81097 | 35004 ft | 492 kts | 209° |
| 2026-04-15 16:52 | 15.12009 | -84.84045 | 35010 ft | 493 kts | 209° |
| 2026-04-15 16:53 | 15.05722 | -84.87004 | 35009 ft | 492 kts | 209° |
| 2026-04-15 16:53 | 14.99736 | -84.89821 | 35008 ft | 493 kts | 208° |
| 2026-04-15 16:54 | 14.93435 | -84.92782 | 35007 ft | 495 kts | 209° |
| 2026-04-15 16:54 | 14.87165 | -84.95727 | 34983 ft | 493 kts | 209° |
| 2026-04-15 16:55 | 14.80896 | -84.98669 | 34985 ft | 493 kts | 209° |
| 2026-04-15 16:55 | 14.74649 | -85.01601 | 34986 ft | 493 kts | 208° |
| 2026-04-15 16:56 | 14.68394 | -85.04534 | 34998 ft | 492 kts | 209° |
| 2026-04-15 16:56 | 14.62120 | -85.07474 | 34996 ft | 493 kts | 209° |
| 2026-04-15 16:57 | 14.55858 | -85.10407 | 35011 ft | 494 kts | 208° |
| 2026-04-15 16:57 | 14.49583 | -85.13344 | 35014 ft | 494 kts | 208° |
| 2026-04-15 16:58 | 14.43332 | -85.16267 | 35019 ft | 492 kts | 208° |
| 2026-04-15 16:58 | 14.37078 | -85.19190 | 35014 ft | 493 kts | 208° |
| 2026-04-15 16:59 | 14.30822 | -85.22112 | 35009 ft | 492 kts | 209° |
| 2026-04-15 16:59 | 14.24566 | -85.25033 | 34994 ft | 492 kts | 208° |
| 2026-04-15 17:00 | 14.18345 | -85.27935 | 34997 ft | 491 kts | 209° |
| 2026-04-15 17:00 | 14.12106 | -85.30844 | 35008 ft | 491 kts | 208° |
| 2026-04-15 17:01 | 14.05828 | -85.33769 | 35018 ft | 494 kts | 208° |
| 2026-04-15 17:01 | 13.99592 | -85.36674 | 35018 ft | 493 kts | 208° |
| 2026-04-15 17:02 | 13.93324 | -85.39593 | 35030 ft | 493 kts | 208° |
| 2026-04-15 17:02 | 13.87064 | -85.42506 | 35019 ft | 491 kts | 208° |
| 2026-04-15 17:03 | 13.80855 | -85.45394 | 35022 ft | 490 kts | 208° |
| 2026-04-15 17:03 | 13.74641 | -85.48282 | 35022 ft | 490 kts | 208° |
| 2026-04-15 17:04 | 13.68378 | -85.51191 | 35029 ft | 491 kts | 208° |
| 2026-04-15 17:04 | 13.62126 | -85.53955 | 35049 ft | 490 kts | 206° |
| 2026-04-15 17:05 | 13.55843 | -85.56726 | 35053 ft | 489 kts | 207° |
| 2026-04-15 17:05 | 13.49633 | -85.59553 | 35066 ft | 488 kts | 208° |
| 2026-04-15 17:06 | 13.43430 | -85.62410 | 35064 ft | 488 kts | 208° |
| 2026-04-15 17:06 | 13.37212 | -85.65283 | 35067 ft | 487 kts | 207° |
| 2026-04-15 17:07 | 13.31014 | -85.68150 | 35071 ft | 487 kts | 207° |
| 2026-04-15 17:07 | 13.24856 | -85.70998 | 35079 ft | 485 kts | 207° |
| 2026-04-15 17:08 | 13.18665 | -85.73862 | 35076 ft | 487 kts | 207° |
| 2026-04-15 17:08 | 13.12450 | -85.76733 | 35070 ft | 485 kts | 207° |
| 2026-04-15 17:09 | 13.06326 | -85.79552 | 35067 ft | 486 kts | 206° |
| 2026-04-15 17:09 | 13.00022 | -85.82175 | 35057 ft | 484 kts | 205° |
| 2026-04-15 17:10 | 12.93743 | -85.84778 | 35058 ft | 486 kts | 205° |
| 2026-04-15 17:10 | 12.87489 | -85.87373 | 35040 ft | 485 kts | 205° |
| 2026-04-15 17:11 | 12.81224 | -85.89968 | 35029 ft | 485 kts | 205° |
| 2026-04-15 17:11 | 12.74930 | -85.92577 | 35021 ft | 484 kts | 205° |
| 2026-04-15 17:12 | 12.65542 | -85.96465 | 35012 ft | 484 kts | 205° |
| 2026-04-15 17:12 | 12.59253 | -85.99068 | 35017 ft | 484 kts | 204° |
| 2026-04-15 17:13 | 12.53003 | -86.01653 | 35006 ft | 485 kts | 205° |
| 2026-04-15 17:13 | 12.46756 | -86.04235 | 34998 ft | 484 kts | 204° |
| 2026-04-15 17:14 | 12.40516 | -86.06813 | 34969 ft | 484 kts | 205° |
| 2026-04-15 17:14 | 12.34211 | -86.09417 | 34941 ft | 484 kts | 205° |
| 2026-04-15 17:15 | 12.27988 | -86.11984 | 34914 ft | 472 kts | 205° |
| 2026-04-15 17:15 | 12.24993 | -86.13219 | 34909 ft | 456 kts | 204° |
| 2026-04-15 17:15 | 12.22085 | -86.14419 | 34915 ft | 447 kts | 205° |
| 2026-04-15 17:16 | 12.16031 | -86.16135 | 34964 ft | 459 kts | 187° |
| 2026-04-15 17:16 | 12.09533 | -86.15823 | 34307 ft | 477 kts | 169° |
| 2026-04-15 17:17 | 12.06325 | -86.14883 | 33560 ft | 477 kts | 160° |
| 2026-04-15 17:17 | 12.03287 | -86.13584 | 32808 ft | 472 kts | 158° |
| 2026-04-15 17:17 | 12.00267 | -86.12296 | 32140 ft | 467 kts | 158° |
| 2026-04-15 17:17 | 11.97287 | -86.11053 | 31514 ft | 466 kts | 159° |
| 2026-04-15 17:18 | 11.94237 | -86.09793 | 30880 ft | 471 kts | 159° |
| 2026-04-15 17:18 | 11.91169 | -86.08534 | 30246 ft | 476 kts | 159° |
| 2026-04-15 17:18 | 11.88081 | -86.07272 | 29596 ft | 479 kts | 159° |
| 2026-04-15 17:18 | 11.84974 | -86.06004 | 28937 ft | 480 kts | 159° |
| 2026-04-15 17:19 | 11.81890 | -86.04748 | 28253 ft | 477 kts | 159° |
| 2026-04-15 17:19 | 11.78850 | -86.03512 | 27579 ft | 470 kts | 159° |
| 2026-04-15 17:19 | 11.75813 | -86.02277 | 26897 ft | 462 kts | 158° |
| 2026-04-15 17:19 | 11.72840 | -86.01068 | 26232 ft | 456 kts | 158° |
| 2026-04-15 17:20 | 11.69912 | -85.99879 | 25586 ft | 452 kts | 158° |
| 2026-04-15 17:20 | 11.66988 | -85.98691 | 24957 ft | 449 kts | 158° |
| 2026-04-15 17:20 | 11.64128 | -85.97529 | 24352 ft | 445 kts | 158° |
| 2026-04-15 17:20 | 11.61254 | -85.96362 | 23752 ft | 442 kts | 158° |
| 2026-04-15 17:21 | 11.58403 | -85.95205 | 23162 ft | 437 kts | 157° |
| 2026-04-15 17:21 | 11.55573 | -85.94057 | 22588 ft | 433 kts | 157° |
| 2026-04-15 17:21 | 11.52792 | -85.92928 | 22042 ft | 431 kts | 156° |
| 2026-04-15 17:21 | 11.50009 | -85.91799 | 21521 ft | 428 kts | 157° |
| 2026-04-15 17:22 | 11.47230 | -85.90672 | 20993 ft | 423 kts | 157° |
| 2026-04-15 17:22 | 11.44520 | -85.89573 | 20464 ft | 416 kts | 156° |
| 2026-04-15 17:22 | 11.41876 | -85.88501 | 19944 ft | 410 kts | 156° |
| 2026-04-15 17:22 | 11.39234 | -85.87430 | 19431 ft | 404 kts | 157° |
| 2026-04-15 17:23 | 11.36637 | -85.86378 | 18915 ft | 398 kts | 157° |
| 2026-04-15 17:23 | 11.34073 | -85.85339 | 18416 ft | 395 kts | 157° |
| 2026-04-15 17:23 | 11.31526 | -85.84306 | 17931 ft | 391 kts | 156° |
| 2026-04-15 17:23 | 11.28984 | -85.83277 | 17409 ft | 387 kts | 157° |
| 2026-04-15 17:24 | 11.26490 | -85.82267 | 16909 ft | 381 kts | 157° |
| 2026-04-15 17:24 | 11.24057 | -85.81283 | 16416 ft | 377 kts | 156° |
| 2026-04-15 17:24 | 11.21601 | -85.80289 | 15955 ft | 375 kts | 156° |
| 2026-04-15 17:24 | 11.19182 | -85.79306 | 15465 ft | 375 kts | 156° |
| 2026-04-15 17:25 | 11.16784 | -85.78329 | 15030 ft | 370 kts | 156° |
| 2026-04-15 17:25 | 11.14376 | -85.77348 | 14607 ft | 368 kts | 156° |
| 2026-04-15 17:25 | 11.12017 | -85.76387 | 14225 ft | 367 kts | 156° |
| 2026-04-15 17:25 | 11.09626 | -85.75414 | 13795 ft | 366 kts | 155° |
| 2026-04-15 17:26 | 11.07276 | -85.74457 | 13351 ft | 363 kts | 155° |
| 2026-04-15 17:26 | 11.04939 | -85.73506 | 12938 ft | 360 kts | 155° |
| 2026-04-15 17:26 | 11.02604 | -85.72555 | 12518 ft | 358 kts | 155° |
| 2026-04-15 17:26 | 11.00283 | -85.71611 | 12084 ft | 356 kts | 155° |
| 2026-04-15 17:27 | 10.97983 | -85.70675 | 11657 ft | 353 kts | 155° |
| 2026-04-15 17:27 | 10.95715 | -85.69752 | 11225 ft | 350 kts | 156° |
| 2026-04-15 17:27 | 10.93434 | -85.68825 | 10799 ft | 348 kts | 156° |
| 2026-04-15 17:27 | 10.91182 | -85.67909 | 10369 ft | 346 kts | 156° |
| 2026-04-15 17:28 | 10.88947 | -85.67000 | 9923 ft | 341 kts | 156° |
| 2026-04-15 17:28 | 10.86776 | -85.66118 | 9506 ft | 335 kts | 156° |
| 2026-04-15 17:28 | 10.84625 | -85.65245 | 9111 ft | 329 kts | 156° |
| 2026-04-15 17:28 | 10.82493 | -85.64379 | 8753 ft | 322 kts | 156° |
| 2026-04-15 17:29 | 10.80434 | -85.63543 | 8436 ft | 315 kts | 155° |
| 2026-04-15 17:29 | 10.78407 | -85.62720 | 8175 ft | 306 kts | 155° |
| 2026-04-15 17:29 | 10.76466 | -85.61932 | 7942 ft | 297 kts | 155° |
| 2026-04-15 17:29 | 10.74582 | -85.61166 | 7771 ft | 286 kts | 155° |
| 2026-04-15 17:30 | 10.72757 | -85.60426 | 7631 ft | 274 kts | 155° |
| 2026-04-15 17:30 | 10.71036 | -85.59727 | 7487 ft | 265 kts | 155° |
| 2026-04-15 17:30 | 10.69292 | -85.59017 | 7338 ft | 274 kts | 154° |
| 2026-04-15 17:30 | 10.67477 | -85.58289 | 7152 ft | 277 kts | 157° |
| 2026-04-15 17:31 | 10.65690 | -85.57610 | 6954 ft | 274 kts | 154° |
| 2026-04-15 17:31 | 10.63906 | -85.56857 | 6672 ft | 274 kts | 154° |
| 2026-04-15 17:31 | 10.62091 | -85.56299 | 6262 ft | 279 kts | 172° |
| 2026-04-15 17:31 | 10.60153 | -85.56567 | 5862 ft | 281 kts | 201° |
| 2026-04-15 17:32 | 10.58561 | -85.57697 | 5511 ft | 283 kts | 229° |
| 2026-04-15 17:32 | 10.57640 | -85.59464 | 5183 ft | 284 kts | 258° |
| 2026-04-15 17:32 | 10.57599 | -85.61446 | 4845 ft | 284 kts | 283° |
| 2026-04-15 17:32 | 10.57920 | -85.63406 | 4503 ft | 283 kts | 276° |
| 2026-04-15 17:33 | 10.57995 | -85.65385 | 4166 ft | 279 kts | 271° |
| 2026-04-15 17:33 | 10.57951 | -85.67377 | 3819 ft | 280 kts | 269° |
| 2026-04-15 17:33 | 10.57837 | -85.69327 | 3453 ft | 281 kts | 267° |
| 2026-04-15 17:33 | 10.57681 | -85.71285 | 3231 ft | 275 kts | 266° |
| 2026-04-15 17:34 | 10.57246 | -85.73160 | 2977 ft | 269 kts | 240° |
| 2026-04-15 17:34 | 10.56071 | -85.74511 | 3021 ft | 245 kts | 208° |
| 2026-04-15 17:34 | 10.54564 | -85.74996 | 3019 ft | 213 kts | 173° |
| 2026-04-15 17:34 | 10.53267 | -85.74580 | 2959 ft | 177 kts | 131° |
| 2026-04-15 17:35 | 10.52745 | -85.73633 | 2950 ft | 139 kts | 84° |
| 2026-04-15 17:35 | 10.52867 | -85.72671 | 3078 ft | 154 kts | 81° |
| 2026-04-15 17:35 | 10.52955 | -85.71407 | 3157 ft | 197 kts | 83° |
| 2026-04-15 17:35 | 10.53347 | -85.70142 | 3181 ft | 182 kts | 63° |
| 2026-04-15 17:36 | 10.53888 | -85.69035 | 3093 ft | 165 kts | 65° |
| 2026-04-15 17:36 | 10.54326 | -85.68022 | 2934 ft | 145 kts | 67° |
| 2026-04-15 17:36 | 10.54719 | -85.67060 | 2973 ft | 157 kts | 68° |
| 2026-04-15 17:36 | 10.55104 | -85.66045 | 3364 ft | 150 kts | 72° |
| 2026-04-15 17:37 | 10.55338 | -85.65047 | 4069 ft | 148 kts | 75° |
| 2026-04-15 17:37 | 10.55705 | -85.63930 | 3966 ft | 171 kts | 70° |
| 2026-04-15 17:37 | 10.56103 | -85.62807 | 3741 ft | 167 kts | 69° |
| 2026-04-15 17:37 | 10.56517 | -85.61672 | 3251 ft | 175 kts | 69° |
| 2026-04-15 17:38 | 10.56959 | -85.60523 | 2791 ft | 179 kts | 65° |
| 2026-04-15 17:38 | 10.57586 | -85.59448 | 2632 ft | 164 kts | 50° |
| 2026-04-15 17:38 | 10.58484 | -85.58840 | 2686 ft | 159 kts | 25° |
| 2026-04-15 17:38 | 10.59586 | -85.58690 | 2755 ft | 158 kts | 2° |
| 2026-04-15 17:39 | 10.60658 | -85.59032 | 2640 ft | 165 kts | 333° |
| 2026-04-15 17:39 | 10.61421 | -85.59938 | 2598 ft | 176 kts | 298° |
| 2026-04-15 17:39 | 10.61474 | -85.61189 | 2497 ft | 182 kts | 249° |
| 2026-04-15 17:39 | 10.60717 | -85.62164 | 2446 ft | 176 kts | 210° |
| 2026-04-15 17:40 | 10.59530 | -85.62506 | 2110 ft | 176 kts | 170° |
| 2026-04-15 17:40 | 10.58466 | -85.62095 | 1846 ft | 157 kts | 132° |
| 2026-04-15 17:40 | 10.57901 | -85.61199 | 1588 ft | 151 kts | 105° |
| 2026-04-15 17:40 | 10.57666 | -85.60207 | 1312 ft | 138 kts | 91° |
| 2026-04-15 17:41 | 10.57697 | -85.59256 | 1059 ft | 136 kts | 79° |
| 2026-04-15 17:41 | 10.57961 | -85.58308 | 926 ft | 140 kts | 72° |
| 2026-04-15 17:41 | 10.58301 | -85.57364 | 749 ft | 145 kts | 73° |
| 2026-04-15 17:41 | 10.58645 | -85.56408 | 528 ft | 145 kts | 74° |
| 2026-04-15 17:42 | 10.58980 | -85.55466 | 287 ft | 135 kts | 72° |
| 2026-04-15 17:42 | 10.59249 | -85.54675 | 265 ft | 93 kts | 69° |
| 2026-04-15 17:42 | 10.59443 | -85.54147 | 268 ft | 65 kts | 69° |
| 2026-04-15 17:42 | 10.59570 | -85.53792 | 272 ft | 39 kts | 70° |
| 2026-04-15 17:43 | 10.59641 | -85.53605 | 276 ft | 18 kts | 59° |
| 2026-04-15 17:43 | 10.59737 | -85.53522 | 277 ft | 17 kts | 26° |
| 2026-04-15 17:43 | 10.59845 | -85.53467 | 276 ft | 16 kts | 35° |
| 2026-04-15 17:43 | 10.59895 | -85.53377 | 277 ft | 11 kts | 64° |
| 2026-04-15 17:44 | 10.59942 | -85.53369 | 277 ft | 6 kts | 302° |
| 2026-04-15 17:44 | 10.59959 | -85.53424 | 275 ft | 7 kts | 314° |
| 2026-04-15 17:44 | 10.60011 | -85.53445 | 274 ft | 8 kts | 342° |
| 2026-04-15 17:44 | 10.60030 | -85.53451 | 273 ft | 0 kts | 340° |